sensor_id;sensor_type;location;lat;lon;timestamp;P1;durP1;ratioP1;P2;durP2;ratioP2
43150;SDS011;28755;51.478;5.702;2022-07-10T00:00:26;4.90;;;1.85;;
43150;SDS011;28755;51.478;5.702;2022-07-10T00:02:52;5.93;;;1.40;;
43150;SDS011;28755;51.478;5.702;2022-07-10T00:05:18;6.90;;;1.50;;
43150;SDS011;28755;51.478;5.702;2022-07-10T00:07:44;7.05;;;1.63;;
43150;SDS011;28755;51.478;5.702;2022-07-10T00:10:10;10.18;;;2.28;;
43150;SDS011;28755;51.478;5.702;2022-07-10T00:12:36;8.45;;;2.00;;
43150;SDS011;28755;51.478;5.702;2022-07-10T00:15:03;5.65;;;1.73;;
43150;SDS011;28755;51.478;5.702;2022-07-10T00:17:29;11.90;;;1.88;;
43150;SDS011;28755;51.478;5.702;2022-07-10T00:19:56;8.18;;;1.70;;
43150;SDS011;28755;51.478;5.702;2022-07-10T00:22:21;7.95;;;1.70;;
43150;SDS011;28755;51.478;5.702;2022-07-10T00:24:47;5.93;;;1.58;;
43150;SDS011;28755;51.478;5.702;2022-07-10T00:27:15;7.85;;;1.75;;
43150;SDS011;28755;51.478;5.702;2022-07-10T00:29:41;6.25;;;1.88;;
43150;SDS011;28755;51.478;5.702;2022-07-10T00:32:07;7.25;;;1.90;;
43150;SDS011;28755;51.478;5.702;2022-07-10T00:34:32;8.85;;;1.67;;
43150;SDS011;28755;51.478;5.702;2022-07-10T00:36:58;4.90;;;1.90;;
43150;SDS011;28755;51.478;5.702;2022-07-10T00:39:24;6.28;;;1.70;;
43150;SDS011;28755;51.478;5.702;2022-07-10T00:41:49;7.05;;;1.90;;
43150;SDS011;28755;51.478;5.702;2022-07-10T00:44:16;12.27;;;2.45;;
43150;SDS011;28755;51.478;5.702;2022-07-10T00:46:41;5.45;;;1.90;;
43150;SDS011;28755;51.478;5.702;2022-07-10T00:49:07;9.57;;;2.28;;
43150;SDS011;28755;51.478;5.702;2022-07-10T00:51:32;7.43;;;1.90;;
43150;SDS011;28755;51.478;5.702;2022-07-10T00:53:58;6.15;;;1.90;;
43150;SDS011;28755;51.478;5.702;2022-07-10T00:56:25;7.20;;;1.92;;
43150;SDS011;28755;51.478;5.702;2022-07-10T00:58:52;7.43;;;1.70;;
43150;SDS011;28755;51.478;5.702;2022-07-10T01:01:18;8.68;;;2.00;;
43150;SDS011;28755;51.478;5.702;2022-07-10T01:03:45;6.20;;;1.90;;
43150;SDS011;28755;51.478;5.702;2022-07-10T01:06:14;8.75;;;2.10;;
43150;SDS011;28755;51.478;5.702;2022-07-10T01:08:41;8.00;;;1.80;;
43150;SDS011;28755;51.478;5.702;2022-07-10T01:11:08;7.97;;;2.10;;
43150;SDS011;28755;51.478;5.702;2022-07-10T01:13:34;7.43;;;1.80;;
43150;SDS011;28755;51.478;5.702;2022-07-10T01:16:00;7.22;;;1.98;;
43150;SDS011;28755;51.478;5.702;2022-07-10T01:18:26;15.20;;;2.40;;
43150;SDS011;28755;51.478;5.702;2022-07-10T01:20:52;6.72;;;1.88;;
43150;SDS011;28755;51.478;5.702;2022-07-10T01:23:19;8.35;;;2.03;;
43150;SDS011;28755;51.478;5.702;2022-07-10T01:25:45;9.18;;;1.95;;
43150;SDS011;28755;51.478;5.702;2022-07-10T01:28:11;9.27;;;2.10;;
43150;SDS011;28755;51.478;5.702;2022-07-10T01:30:36;9.45;;;1.90;;
43150;SDS011;28755;51.478;5.702;2022-07-10T01:33:02;7.57;;;1.85;;
43150;SDS011;28755;51.478;5.702;2022-07-10T01:35:28;9.85;;;2.78;;
43150;SDS011;28755;51.478;5.702;2022-07-10T01:37:53;13.07;;;2.80;;
43150;SDS011;28755;51.478;5.702;2022-07-10T01:40:19;11.68;;;3.00;;
43150;SDS011;28755;51.478;5.702;2022-07-10T01:42:44;7.18;;;2.20;;
43150;SDS011;28755;51.478;5.702;2022-07-10T01:45:10;11.80;;;2.70;;
43150;SDS011;28755;51.478;5.702;2022-07-10T01:47:36;8.82;;;2.67;;
43150;SDS011;28755;51.478;5.702;2022-07-10T01:50:03;7.28;;;2.25;;
43150;SDS011;28755;51.478;5.702;2022-07-10T01:52:29;6.75;;;2.20;;
43150;SDS011;28755;51.478;5.702;2022-07-10T01:54:55;8.05;;;2.60;;
43150;SDS011;28755;51.478;5.702;2022-07-10T01:57:21;5.07;;;2.08;;
43150;SDS011;28755;51.478;5.702;2022-07-10T01:59:46;7.55;;;2.40;;
43150;SDS011;28755;51.478;5.702;2022-07-10T02:02:12;6.07;;;2.22;;
43150;SDS011;28755;51.478;5.702;2022-07-10T02:04:37;8.20;;;2.63;;
43150;SDS011;28755;51.478;5.702;2022-07-10T02:07:09;8.27;;;2.53;;
43150;SDS011;28755;51.478;5.702;2022-07-10T02:09:39;7.68;;;2.65;;
43150;SDS011;28755;51.478;5.702;2022-07-10T02:12:05;9.68;;;2.40;;
43150;SDS011;28755;51.478;5.702;2022-07-10T02:14:35;10.00;;;2.15;;
43150;SDS011;28755;51.478;5.702;2022-07-10T02:17:01;9.02;;;2.58;;
43150;SDS011;28755;51.478;5.702;2022-07-10T02:19:28;13.15;;;2.30;;
43150;SDS011;28755;51.478;5.702;2022-07-10T02:21:54;7.97;;;2.38;;
43150;SDS011;28755;51.478;5.702;2022-07-10T02:24:20;10.70;;;2.67;;
43150;SDS011;28755;51.478;5.702;2022-07-10T02:26:45;9.18;;;1.85;;
43150;SDS011;28755;51.478;5.702;2022-07-10T02:29:11;9.25;;;2.45;;
43150;SDS011;28755;51.478;5.702;2022-07-10T02:31:37;12.00;;;2.13;;
43150;SDS011;28755;51.478;5.702;2022-07-10T02:34:11;10.10;;;2.25;;
43150;SDS011;28755;51.478;5.702;2022-07-10T02:36:37;9.35;;;2.28;;
43150;SDS011;28755;51.478;5.702;2022-07-10T02:39:04;9.70;;;2.58;;
43150;SDS011;28755;51.478;5.702;2022-07-10T02:41:30;9.93;;;2.22;;
43150;SDS011;28755;51.478;5.702;2022-07-10T02:43:56;8.15;;;2.53;;
43150;SDS011;28755;51.478;5.702;2022-07-10T02:46:21;6.68;;;2.25;;
43150;SDS011;28755;51.478;5.702;2022-07-10T02:48:47;8.30;;;2.42;;
43150;SDS011;28755;51.478;5.702;2022-07-10T02:51:12;7.75;;;2.60;;
43150;SDS011;28755;51.478;5.702;2022-07-10T02:53:38;7.25;;;2.35;;
43150;SDS011;28755;51.478;5.702;2022-07-10T02:56:04;12.50;;;2.13;;
43150;SDS011;28755;51.478;5.702;2022-07-10T02:58:30;7.72;;;2.30;;
43150;SDS011;28755;51.478;5.702;2022-07-10T03:00:55;10.25;;;2.95;;
43150;SDS011;28755;51.478;5.702;2022-07-10T03:03:21;10.00;;;3.00;;
43150;SDS011;28755;51.478;5.702;2022-07-10T03:05:47;9.60;;;2.40;;
43150;SDS011;28755;51.478;5.702;2022-07-10T03:08:13;12.68;;;2.95;;
43150;SDS011;28755;51.478;5.702;2022-07-10T03:10:38;8.18;;;2.80;;
43150;SDS011;28755;51.478;5.702;2022-07-10T03:13:04;9.75;;;2.70;;
43150;SDS011;28755;51.478;5.702;2022-07-10T03:15:30;7.72;;;2.50;;
43150;SDS011;28755;51.478;5.702;2022-07-10T03:17:55;7.03;;;2.20;;
43150;SDS011;28755;51.478;5.702;2022-07-10T03:20:21;10.88;;;2.60;;
43150;SDS011;28755;51.478;5.702;2022-07-10T03:22:47;8.75;;;2.38;;
43150;SDS011;28755;51.478;5.702;2022-07-10T03:25:12;8.93;;;2.47;;
43150;SDS011;28755;51.478;5.702;2022-07-10T03:27:38;8.70;;;2.67;;
43150;SDS011;28755;51.478;5.702;2022-07-10T03:30:04;8.32;;;2.50;;
43150;SDS011;28755;51.478;5.702;2022-07-10T03:32:31;12.90;;;3.08;;
43150;SDS011;28755;51.478;5.702;2022-07-10T03:34:57;7.72;;;2.42;;
43150;SDS011;28755;51.478;5.702;2022-07-10T03:37:22;8.73;;;2.42;;
43150;SDS011;28755;51.478;5.702;2022-07-10T03:39:48;12.77;;;2.60;;
43150;SDS011;28755;51.478;5.702;2022-07-10T03:42:13;7.25;;;2.53;;
43150;SDS011;28755;51.478;5.702;2022-07-10T03:44:39;10.88;;;3.13;;
43150;SDS011;28755;51.478;5.702;2022-07-10T03:47:05;8.23;;;2.42;;
43150;SDS011;28755;51.478;5.702;2022-07-10T03:49:30;7.30;;;2.45;;
43150;SDS011;28755;51.478;5.702;2022-07-10T03:51:59;9.55;;;2.22;;
43150;SDS011;28755;51.478;5.702;2022-07-10T03:54:26;17.83;;;2.70;;
43150;SDS011;28755;51.478;5.702;2022-07-10T03:56:52;11.60;;;2.83;;
43150;SDS011;28755;51.478;5.702;2022-07-10T03:59:36;12.23;;;2.47;;
43150;SDS011;28755;51.478;5.702;2022-07-10T04:02:01;10.23;;;2.47;;
43150;SDS011;28755;51.478;5.702;2022-07-10T04:04:27;8.73;;;2.72;;
43150;SDS011;28755;51.478;5.702;2022-07-10T04:06:53;6.75;;;2.33;;
43150;SDS011;28755;51.478;5.702;2022-07-10T04:09:18;8.88;;;2.67;;
43150;SDS011;28755;51.478;5.702;2022-07-10T04:11:44;10.43;;;2.58;;
43150;SDS011;28755;51.478;5.702;2022-07-10T04:14:10;8.48;;;2.22;;
43150;SDS011;28755;51.478;5.702;2022-07-10T04:16:35;8.95;;;2.53;;
43150;SDS011;28755;51.478;5.702;2022-07-10T04:19:01;9.00;;;2.63;;
43150;SDS011;28755;51.478;5.702;2022-07-10T04:21:27;9.25;;;3.03;;
43150;SDS011;28755;51.478;5.702;2022-07-10T04:23:53;9.82;;;2.70;;
43150;SDS011;28755;51.478;5.702;2022-07-10T04:26:18;12.65;;;2.92;;
43150;SDS011;28755;51.478;5.702;2022-07-10T04:28:44;6.70;;;2.55;;
43150;SDS011;28755;51.478;5.702;2022-07-10T04:31:09;8.02;;;2.40;;
43150;SDS011;28755;51.478;5.702;2022-07-10T04:33:35;12.02;;;2.95;;
43150;SDS011;28755;51.478;5.702;2022-07-10T04:36:01;9.50;;;2.58;;
43150;SDS011;28755;51.478;5.702;2022-07-10T04:38:26;9.82;;;2.35;;
43150;SDS011;28755;51.478;5.702;2022-07-10T04:40:52;10.23;;;2.45;;
43150;SDS011;28755;51.478;5.702;2022-07-10T04:43:17;8.40;;;2.38;;
43150;SDS011;28755;51.478;5.702;2022-07-10T04:45:43;10.40;;;2.58;;
43150;SDS011;28755;51.478;5.702;2022-07-10T04:48:10;7.38;;;2.72;;
43150;SDS011;28755;51.478;5.702;2022-07-10T04:50:35;14.25;;;2.60;;
43150;SDS011;28755;51.478;5.702;2022-07-10T04:53:01;10.18;;;2.45;;
43150;SDS011;28755;51.478;5.702;2022-07-10T04:55:26;8.02;;;2.63;;
43150;SDS011;28755;51.478;5.702;2022-07-10T04:57:52;6.13;;;2.20;;
43150;SDS011;28755;51.478;5.702;2022-07-10T05:00:18;7.75;;;2.38;;
43150;SDS011;28755;51.478;5.702;2022-07-10T05:02:43;9.25;;;2.50;;
43150;SDS011;28755;51.478;5.702;2022-07-10T05:05:09;7.47;;;2.22;;
43150;SDS011;28755;51.478;5.702;2022-07-10T05:07:35;14.82;;;2.60;;
43150;SDS011;28755;51.478;5.702;2022-07-10T05:10:00;8.52;;;2.88;;
43150;SDS011;28755;51.478;5.702;2022-07-10T05:12:26;8.93;;;2.03;;
43150;SDS011;28755;51.478;5.702;2022-07-10T05:14:52;11.52;;;2.40;;
43150;SDS011;28755;51.478;5.702;2022-07-10T05:17:17;11.60;;;2.55;;
43150;SDS011;28755;51.478;5.702;2022-07-10T05:19:43;12.88;;;2.42;;
43150;SDS011;28755;51.478;5.702;2022-07-10T05:22:09;14.65;;;2.72;;
43150;SDS011;28755;51.478;5.702;2022-07-10T05:24:34;12.00;;;2.80;;
43150;SDS011;28755;51.478;5.702;2022-07-10T05:27:00;8.85;;;2.40;;
43150;SDS011;28755;51.478;5.702;2022-07-10T05:29:26;8.27;;;2.70;;
43150;SDS011;28755;51.478;5.702;2022-07-10T05:31:52;9.77;;;2.70;;
43150;SDS011;28755;51.478;5.702;2022-07-10T05:34:17;9.68;;;2.35;;
43150;SDS011;28755;51.478;5.702;2022-07-10T05:36:43;10.15;;;2.22;;
43150;SDS011;28755;51.478;5.702;2022-07-10T05:39:09;8.32;;;2.55;;
43150;SDS011;28755;51.478;5.702;2022-07-10T05:41:34;7.47;;;2.30;;
43150;SDS011;28755;51.478;5.702;2022-07-10T05:44:01;5.07;;;1.67;;
43150;SDS011;28755;51.478;5.702;2022-07-10T05:46:27;8.90;;;2.47;;
43150;SDS011;28755;51.478;5.702;2022-07-10T05:48:52;9.70;;;2.28;;
43150;SDS011;28755;51.478;5.702;2022-07-10T05:51:18;6.32;;;2.13;;
43150;SDS011;28755;51.478;5.702;2022-07-10T05:53:44;9.38;;;2.30;;
43150;SDS011;28755;51.478;5.702;2022-07-10T05:56:09;6.28;;;2.08;;
43150;SDS011;28755;51.478;5.702;2022-07-10T05:58:35;10.40;;;2.42;;
43150;SDS011;28755;51.478;5.702;2022-07-10T06:01:00;8.52;;;2.15;;
43150;SDS011;28755;51.478;5.702;2022-07-10T06:03:26;8.40;;;2.13;;
43150;SDS011;28755;51.478;5.702;2022-07-10T06:05:52;7.13;;;1.90;;
43150;SDS011;28755;51.478;5.702;2022-07-10T06:08:17;10.80;;;2.55;;
43150;SDS011;28755;51.478;5.702;2022-07-10T06:10:43;9.35;;;2.30;;
43150;SDS011;28755;51.478;5.702;2022-07-10T06:13:09;7.68;;;2.13;;
43150;SDS011;28755;51.478;5.702;2022-07-10T06:15:35;9.57;;;2.47;;
43150;SDS011;28755;51.478;5.702;2022-07-10T06:18:01;12.13;;;2.55;;
43150;SDS011;28755;51.478;5.702;2022-07-10T06:20:27;10.35;;;2.20;;
43150;SDS011;28755;51.478;5.702;2022-07-10T06:22:53;6.50;;;2.20;;
43150;SDS011;28755;51.478;5.702;2022-07-10T06:25:18;7.18;;;2.00;;
43150;SDS011;28755;51.478;5.702;2022-07-10T06:27:44;8.65;;;1.88;;
43150;SDS011;28755;51.478;5.702;2022-07-10T06:30:10;12.20;;;2.33;;
43150;SDS011;28755;51.478;5.702;2022-07-10T06:32:36;6.03;;;2.33;;
43150;SDS011;28755;51.478;5.702;2022-07-10T06:35:01;5.22;;;2.03;;
43150;SDS011;28755;51.478;5.702;2022-07-10T06:37:28;7.72;;;2.22;;
43150;SDS011;28755;51.478;5.702;2022-07-10T06:39:55;8.68;;;2.20;;
43150;SDS011;28755;51.478;5.702;2022-07-10T06:42:21;11.15;;;2.13;;
43150;SDS011;28755;51.478;5.702;2022-07-10T06:44:46;9.00;;;2.17;;
43150;SDS011;28755;51.478;5.702;2022-07-10T06:47:13;13.52;;;2.65;;
43150;SDS011;28755;51.478;5.702;2022-07-10T06:49:58;14.80;;;2.53;;
43150;SDS011;28755;51.478;5.702;2022-07-10T06:52:25;9.38;;;2.13;;
43150;SDS011;28755;51.478;5.702;2022-07-10T06:54:50;15.05;;;2.60;;
43150;SDS011;28755;51.478;5.702;2022-07-10T06:57:17;6.35;;;1.83;;
43150;SDS011;28755;51.478;5.702;2022-07-10T06:59:44;11.00;;;2.55;;
43150;SDS011;28755;51.478;5.702;2022-07-10T07:02:10;11.40;;;2.15;;
43150;SDS011;28755;51.478;5.702;2022-07-10T07:04:36;7.60;;;1.80;;
43150;SDS011;28755;51.478;5.702;2022-07-10T07:07:02;10.13;;;2.00;;
43150;SDS011;28755;51.478;5.702;2022-07-10T07:09:27;12.52;;;2.10;;
43150;SDS011;28755;51.478;5.702;2022-07-10T07:11:53;13.02;;;2.30;;
43150;SDS011;28755;51.478;5.702;2022-07-10T07:14:19;7.00;;;1.95;;
43150;SDS011;28755;51.478;5.702;2022-07-10T07:16:44;8.15;;;1.80;;
43150;SDS011;28755;51.478;5.702;2022-07-10T07:19:12;11.93;;;1.77;;
43150;SDS011;28755;51.478;5.702;2022-07-10T07:21:55;11.25;;;2.10;;
43150;SDS011;28755;51.478;5.702;2022-07-10T07:24:40;7.72;;;1.67;;
43150;SDS011;28755;51.478;5.702;2022-07-10T07:27:06;11.82;;;2.15;;
43150;SDS011;28755;51.478;5.702;2022-07-10T07:29:32;9.45;;;1.85;;
43150;SDS011;28755;51.478;5.702;2022-07-10T07:31:57;12.98;;;1.90;;
43150;SDS011;28755;51.478;5.702;2022-07-10T07:34:24;8.45;;;2.08;;
43150;SDS011;28755;51.478;5.702;2022-07-10T07:36:51;11.45;;;2.10;;
43150;SDS011;28755;51.478;5.702;2022-07-10T07:39:16;5.28;;;1.42;;
43150;SDS011;28755;51.478;5.702;2022-07-10T07:41:42;9.38;;;1.80;;
43150;SDS011;28755;51.478;5.702;2022-07-10T07:44:07;10.10;;;1.90;;
43150;SDS011;28755;51.478;5.702;2022-07-10T07:46:33;11.30;;;2.28;;
43150;SDS011;28755;51.478;5.702;2022-07-10T07:48:59;6.97;;;1.77;;
43150;SDS011;28755;51.478;5.702;2022-07-10T07:51:25;8.73;;;1.80;;
43150;SDS011;28755;51.478;5.702;2022-07-10T07:53:50;8.10;;;1.80;;
43150;SDS011;28755;51.478;5.702;2022-07-10T07:56:16;12.07;;;2.05;;
43150;SDS011;28755;51.478;5.702;2022-07-10T07:58:41;7.53;;;1.80;;
43150;SDS011;28755;51.478;5.702;2022-07-10T08:01:07;14.48;;;2.28;;
43150;SDS011;28755;51.478;5.702;2022-07-10T08:03:33;7.80;;;1.70;;
43150;SDS011;28755;51.478;5.702;2022-07-10T08:05:58;10.07;;;1.70;;
43150;SDS011;28755;51.478;5.702;2022-07-10T08:08:24;11.70;;;1.75;;
43150;SDS011;28755;51.478;5.702;2022-07-10T08:10:50;6.07;;;1.75;;
43150;SDS011;28755;51.478;5.702;2022-07-10T08:13:15;11.35;;;1.67;;
43150;SDS011;28755;51.478;5.702;2022-07-10T08:15:41;8.52;;;1.88;;
43150;SDS011;28755;51.478;5.702;2022-07-10T08:18:06;12.75;;;2.03;;
43150;SDS011;28755;51.478;5.702;2022-07-10T08:20:32;10.57;;;2.20;;
43150;SDS011;28755;51.478;5.702;2022-07-10T08:22:58;6.40;;;1.70;;
43150;SDS011;28755;51.478;5.702;2022-07-10T08:25:24;9.60;;;1.80;;
43150;SDS011;28755;51.478;5.702;2022-07-10T08:27:50;8.02;;;1.60;;
43150;SDS011;28755;51.478;5.702;2022-07-10T08:30:15;8.70;;;2.08;;
43150;SDS011;28755;51.478;5.702;2022-07-10T08:32:41;9.75;;;1.67;;
43150;SDS011;28755;51.478;5.702;2022-07-10T08:35:08;9.20;;;1.73;;
43150;SDS011;28755;51.478;5.702;2022-07-10T08:37:37;9.20;;;2.10;;
43150;SDS011;28755;51.478;5.702;2022-07-10T08:40:04;8.38;;;2.47;;
43150;SDS011;28755;51.478;5.702;2022-07-10T08:42:30;14.70;;;2.70;;
43150;SDS011;28755;51.478;5.702;2022-07-10T08:44:57;10.43;;;2.33;;
43150;SDS011;28755;51.478;5.702;2022-07-10T08:47:23;10.27;;;2.70;;
43150;SDS011;28755;51.478;5.702;2022-07-10T08:49:50;9.98;;;2.80;;
43150;SDS011;28755;51.478;5.702;2022-07-10T08:55:06;10.18;;;2.40;;
43150;SDS011;28755;51.478;5.702;2022-07-10T08:57:32;13.05;;;2.55;;
43150;SDS011;28755;51.478;5.702;2022-07-10T08:59:59;9.68;;;2.20;;
43150;SDS011;28755;51.478;5.702;2022-07-10T09:02:25;14.18;;;2.60;;
43150;SDS011;28755;51.478;5.702;2022-07-10T09:04:50;13.80;;;2.65;;
43150;SDS011;28755;51.478;5.702;2022-07-10T09:07:16;8.55;;;2.38;;
43150;SDS011;28755;51.478;5.702;2022-07-10T09:09:52;8.23;;;2.42;;
43150;SDS011;28755;51.478;5.702;2022-07-10T09:12:21;10.48;;;2.50;;
43150;SDS011;28755;51.478;5.702;2022-07-10T09:14:49;12.70;;;3.30;;
43150;SDS011;28755;51.478;5.702;2022-07-10T09:17:15;9.07;;;2.90;;
43150;SDS011;28755;51.478;5.702;2022-07-10T09:19:42;11.38;;;2.63;;
43150;SDS011;28755;51.478;5.702;2022-07-10T09:22:09;13.38;;;2.70;;
43150;SDS011;28755;51.478;5.702;2022-07-10T09:24:43;10.88;;;2.35;;
43150;SDS011;28755;51.478;5.702;2022-07-10T09:27:11;13.52;;;2.75;;
43150;SDS011;28755;51.478;5.702;2022-07-10T09:29:44;12.77;;;2.65;;
43150;SDS011;28755;51.478;5.702;2022-07-10T09:32:16;12.27;;;2.47;;
43150;SDS011;28755;51.478;5.702;2022-07-10T09:34:49;13.52;;;2.95;;
43150;SDS011;28755;51.478;5.702;2022-07-10T09:37:38;13.18;;;2.88;;
43150;SDS011;28755;51.478;5.702;2022-07-10T09:40:06;10.27;;;2.58;;
43150;SDS011;28755;51.478;5.702;2022-07-10T09:42:33;10.90;;;2.67;;
43150;SDS011;28755;51.478;5.702;2022-07-10T09:47:34;10.65;;;2.70;;
43150;SDS011;28755;51.478;5.702;2022-07-10T09:50:00;12.13;;;2.50;;
43150;SDS011;28755;51.478;5.702;2022-07-10T09:52:25;6.93;;;2.35;;
43150;SDS011;28755;51.478;5.702;2022-07-10T09:54:52;6.43;;;2.85;;
43150;SDS011;28755;51.478;5.702;2022-07-10T09:57:18;10.40;;;2.47;;
43150;SDS011;28755;51.478;5.702;2022-07-10T09:59:45;11.43;;;2.63;;
43150;SDS011;28755;51.478;5.702;2022-07-10T10:02:11;8.30;;;2.70;;
43150;SDS011;28755;51.478;5.702;2022-07-10T10:04:38;8.52;;;2.33;;
43150;SDS011;28755;51.478;5.702;2022-07-10T10:07:06;10.15;;;2.70;;
43150;SDS011;28755;51.478;5.702;2022-07-10T10:09:41;7.32;;;2.03;;
43150;SDS011;28755;51.478;5.702;2022-07-10T10:12:12;6.10;;;1.88;;
43150;SDS011;28755;51.478;5.702;2022-07-10T10:14:42;8.63;;;1.80;;
43150;SDS011;28755;51.478;5.702;2022-07-10T10:17:08;10.55;;;2.30;;
43150;SDS011;28755;51.478;5.702;2022-07-10T10:19:36;5.35;;;2.00;;
43150;SDS011;28755;51.478;5.702;2022-07-10T10:22:23;8.52;;;2.80;;
43150;SDS011;28755;51.478;5.702;2022-07-10T10:24:49;8.23;;;1.80;;
43150;SDS011;28755;51.478;5.702;2022-07-10T10:27:16;6.10;;;2.63;;
43150;SDS011;28755;51.478;5.702;2022-07-10T10:29:43;8.52;;;2.22;;
43150;SDS011;28755;51.478;5.702;2022-07-10T10:32:10;11.90;;;2.25;;
43150;SDS011;28755;51.478;5.702;2022-07-10T10:34:43;9.98;;;2.33;;
43150;SDS011;28755;51.478;5.702;2022-07-10T10:39:52;9.15;;;2.55;;
43150;SDS011;28755;51.478;5.702;2022-07-10T10:42:38;10.95;;;2.00;;
43150;SDS011;28755;51.478;5.702;2022-07-10T10:45:23;9.77;;;2.20;;
43150;SDS011;28755;51.478;5.702;2022-07-10T10:47:58;6.65;;;1.90;;
43150;SDS011;28755;51.478;5.702;2022-07-10T10:50:37;9.07;;;1.90;;
43150;SDS011;28755;51.478;5.702;2022-07-10T10:53:04;9.27;;;2.30;;
43150;SDS011;28755;51.478;5.702;2022-07-10T10:55:37;10.02;;;2.05;;
43150;SDS011;28755;51.478;5.702;2022-07-10T10:58:13;7.75;;;2.00;;
43150;SDS011;28755;51.478;5.702;2022-07-10T11:00:40;6.53;;;2.00;;
43150;SDS011;28755;51.478;5.702;2022-07-10T11:03:19;10.70;;;2.20;;
43150;SDS011;28755;51.478;5.702;2022-07-10T11:05:49;8.05;;;1.70;;
43150;SDS011;28755;51.478;5.702;2022-07-10T11:08:34;6.75;;;1.75;;
43150;SDS011;28755;51.478;5.702;2022-07-10T11:11:20;6.18;;;2.30;;
43150;SDS011;28755;51.478;5.702;2022-07-10T11:13:57;4.75;;;2.00;;
43150;SDS011;28755;51.478;5.702;2022-07-10T11:16:23;6.13;;;1.95;;
43150;SDS011;28755;51.478;5.702;2022-07-10T11:18:52;7.93;;;2.38;;
43150;SDS011;28755;51.478;5.702;2022-07-10T11:21:22;10.38;;;2.50;;
43150;SDS011;28755;51.478;5.702;2022-07-10T11:26:36;8.15;;;2.13;;
43150;SDS011;28755;51.478;5.702;2022-07-10T11:29:17;8.30;;;2.08;;
43150;SDS011;28755;51.478;5.702;2022-07-10T11:31:43;3.80;;;1.87;;
43150;SDS011;28755;51.478;5.702;2022-07-10T11:34:17;6.97;;;2.15;;
43150;SDS011;28755;51.478;5.702;2022-07-10T11:36:43;6.15;;;2.00;;
43150;SDS011;28755;51.478;5.702;2022-07-10T11:39:09;6.13;;;1.70;;
43150;SDS011;28755;51.478;5.702;2022-07-10T11:41:42;6.13;;;1.60;;
43150;SDS011;28755;51.478;5.702;2022-07-10T11:44:14;6.35;;;1.83;;
43150;SDS011;28755;51.478;5.702;2022-07-10T11:46:45;4.32;;;1.77;;
43150;SDS011;28755;51.478;5.702;2022-07-10T11:49:14;4.22;;;1.50;;
43150;SDS011;28755;51.478;5.702;2022-07-10T11:51:41;4.22;;;1.50;;
43150;SDS011;28755;51.478;5.702;2022-07-10T11:54:11;5.75;;;1.50;;
43150;SDS011;28755;51.478;5.702;2022-07-10T11:56:40;6.15;;;1.40;;
43150;SDS011;28755;51.478;5.702;2022-07-10T11:59:07;4.60;;;1.58;;
43150;SDS011;28755;51.478;5.702;2022-07-10T12:01:34;6.32;;;1.70;;
43150;SDS011;28755;51.478;5.702;2022-07-10T12:04:06;3.67;;;1.65;;
43150;SDS011;28755;51.478;5.702;2022-07-10T12:06:35;5.60;;;1.35;;
43150;SDS011;28755;51.478;5.702;2022-07-10T12:09:04;4.72;;;1.40;;
43150;SDS011;28755;51.478;5.702;2022-07-10T12:11:32;5.30;;;1.30;;
43150;SDS011;28755;51.478;5.702;2022-07-10T12:14:08;4.95;;;1.45;;
43150;SDS011;28755;51.478;5.702;2022-07-10T12:16:36;5.20;;;1.60;;
43150;SDS011;28755;51.478;5.702;2022-07-10T12:19:03;3.47;;;1.42;;
43150;SDS011;28755;51.478;5.702;2022-07-10T12:21:31;3.55;;;1.30;;
43150;SDS011;28755;51.478;5.702;2022-07-10T12:23:57;8.43;;;1.58;;
43150;SDS011;28755;51.478;5.702;2022-07-10T12:26:24;5.18;;;1.42;;
43150;SDS011;28755;51.478;5.702;2022-07-10T12:29:00;6.22;;;1.40;;
43150;SDS011;28755;51.478;5.702;2022-07-10T12:31:31;6.03;;;1.45;;
43150;SDS011;28755;51.478;5.702;2022-07-10T12:34:00;5.82;;;1.83;;
43150;SDS011;28755;51.478;5.702;2022-07-10T12:39:11;3.65;;;1.77;;
43150;SDS011;28755;51.478;5.702;2022-07-10T12:41:55;6.10;;;1.50;;
43150;SDS011;28755;51.478;5.702;2022-07-10T12:44:31;5.75;;;2.03;;
43150;SDS011;28755;51.478;5.702;2022-07-10T12:47:08;4.93;;;1.50;;
43150;SDS011;28755;51.478;5.702;2022-07-10T12:49:56;6.38;;;1.70;;
43150;SDS011;28755;51.478;5.702;2022-07-10T12:52:30;2.25;;;1.20;;
43150;SDS011;28755;51.478;5.702;2022-07-10T12:55:07;3.63;;;1.30;;
43150;SDS011;28755;51.478;5.702;2022-07-10T12:57:49;3.95;;;1.08;;
43150;SDS011;28755;51.478;5.702;2022-07-10T13:00:18;7.40;;;1.38;;
43150;SDS011;28755;51.478;5.702;2022-07-10T13:02:46;4.15;;;1.40;;
43150;SDS011;28755;51.478;5.702;2022-07-10T13:10:53;5.95;;;1.52;;
43150;SDS011;28755;51.478;5.702;2022-07-10T13:13:20;4.07;;;1.15;;
43150;SDS011;28755;51.478;5.702;2022-07-10T13:15:46;5.30;;;1.20;;
43150;SDS011;28755;51.478;5.702;2022-07-10T13:18:15;5.65;;;1.00;;
43150;SDS011;28755;51.478;5.702;2022-07-10T13:20:43;4.18;;;1.10;;
43150;SDS011;28755;51.478;5.702;2022-07-10T13:23:12;3.58;;;1.13;;
43150;SDS011;28755;51.478;5.702;2022-07-10T13:25:38;2.40;;;1.00;;
43150;SDS011;28755;51.478;5.702;2022-07-10T13:28:06;3.55;;;1.42;;
43150;SDS011;28755;51.478;5.702;2022-07-10T13:30:33;2.70;;;1.37;;
43150;SDS011;28755;51.478;5.702;2022-07-10T13:32:59;5.22;;;1.17;;
43150;SDS011;28755;51.478;5.702;2022-07-10T13:35:28;6.18;;;1.48;;
43150;SDS011;28755;51.478;5.702;2022-07-10T13:37:55;4.05;;;1.30;;
43150;SDS011;28755;51.478;5.702;2022-07-10T13:40:24;3.03;;;1.13;;
43150;SDS011;28755;51.478;5.702;2022-07-10T13:42:50;3.15;;;1.30;;
43150;SDS011;28755;51.478;5.702;2022-07-10T13:45:17;3.15;;;1.13;;
43150;SDS011;28755;51.478;5.702;2022-07-10T13:47:42;6.53;;;1.27;;
43150;SDS011;28755;51.478;5.702;2022-07-10T13:50:08;4.82;;;1.20;;
43150;SDS011;28755;51.478;5.702;2022-07-10T13:52:34;6.50;;;1.20;;
43150;SDS011;28755;51.478;5.702;2022-07-10T13:55:00;3.67;;;0.98;;
43150;SDS011;28755;51.478;5.702;2022-07-10T13:57:26;2.67;;;0.90;;
43150;SDS011;28755;51.478;5.702;2022-07-10T13:59:52;2.72;;;1.05;;
43150;SDS011;28755;51.478;5.702;2022-07-10T14:02:19;2.55;;;1.00;;
43150;SDS011;28755;51.478;5.702;2022-07-10T14:04:45;2.92;;;0.95;;
43150;SDS011;28755;51.478;5.702;2022-07-10T14:07:10;4.53;;;1.23;;
43150;SDS011;28755;51.478;5.702;2022-07-10T14:09:36;5.00;;;1.33;;
43150;SDS011;28755;51.478;5.702;2022-07-10T14:12:01;4.10;;;1.00;;
43150;SDS011;28755;51.478;5.702;2022-07-10T14:14:27;8.43;;;1.27;;
43150;SDS011;28755;51.478;5.702;2022-07-10T14:16:53;3.83;;;1.10;;
43150;SDS011;28755;51.478;5.702;2022-07-10T14:19:18;3.58;;;1.02;;
43150;SDS011;28755;51.478;5.702;2022-07-10T14:21:44;4.18;;;1.40;;
43150;SDS011;28755;51.478;5.702;2022-07-10T14:24:10;3.15;;;1.08;;
43150;SDS011;28755;51.478;5.702;2022-07-10T14:26:35;5.38;;;0.90;;
43150;SDS011;28755;51.478;5.702;2022-07-10T14:29:02;5.60;;;1.00;;
43150;SDS011;28755;51.478;5.702;2022-07-10T14:31:28;4.68;;;1.20;;
43150;SDS011;28755;51.478;5.702;2022-07-10T14:33:54;4.18;;;1.02;;
43150;SDS011;28755;51.478;5.702;2022-07-10T14:36:20;3.55;;;0.95;;
43150;SDS011;28755;51.478;5.702;2022-07-10T14:38:47;3.22;;;1.05;;
43150;SDS011;28755;51.478;5.702;2022-07-10T14:41:13;3.63;;;0.93;;
43150;SDS011;28755;51.478;5.702;2022-07-10T14:43:40;3.20;;;1.15;;
43150;SDS011;28755;51.478;5.702;2022-07-10T14:46:05;4.53;;;1.25;;
43150;SDS011;28755;51.478;5.702;2022-07-10T14:48:31;4.15;;;1.23;;
43150;SDS011;28755;51.478;5.702;2022-07-10T14:50:58;3.75;;;1.40;;
43150;SDS011;28755;51.478;5.702;2022-07-10T14:53:23;5.70;;;1.63;;
43150;SDS011;28755;51.478;5.702;2022-07-10T14:55:49;13.75;;;6.05;;
43150;SDS011;28755;51.478;5.702;2022-07-10T14:58:15;5.43;;;1.98;;
43150;SDS011;28755;51.478;5.702;2022-07-10T15:00:41;6.15;;;2.03;;
43150;SDS011;28755;51.478;5.702;2022-07-10T15:03:07;8.80;;;1.85;;